createdAt,value
2018-11-11T00:00:37.861Z,99.99
2018-11-11T00:01:37.849Z,99.99
2018-11-11T00:02:37.843Z,99.99
2018-11-11T00:03:37.899Z,99.99
2018-11-11T00:04:38.390Z,99.99
2018-11-11T00:05:37.948Z,99.99
2018-11-11T00:06:37.796Z,99.99
2018-11-11T00:07:37.788Z,99.99
2018-11-11T00:08:38.435Z,99.99
2018-11-11T00:09:38.470Z,99.99
2018-11-11T00:10:37.747Z,99.73
2018-11-11T00:11:37.740Z,99.99
2018-11-11T00:12:37.726Z,99.99
2018-11-11T00:13:37.720Z,99.84
2018-11-11T00:14:37.724Z,99.52
2018-11-11T00:15:37.696Z,99.79
2018-11-11T00:16:37.679Z,99.89
2018-11-11T00:17:37.670Z,99.58
2018-11-11T00:18:37.663Z,99.58
2018-11-11T00:19:37.670Z,99.99
2018-11-11T00:20:37.661Z,99.73
2018-11-11T00:21:37.689Z,99.84
2018-11-11T00:22:37.621Z,99.18
2018-11-11T00:23:37.603Z,99.68
2018-11-11T00:24:37.592Z,98.97
2018-11-11T00:25:37.607Z,99.38
2018-11-11T00:26:37.574Z,99.27
2018-11-11T00:27:37.567Z,99.07
2018-11-11T00:28:37.579Z,99.32
2018-11-11T00:29:37.552Z,99.68
2018-11-11T00:30:37.531Z,99.48
2018-11-11T00:31:37.547Z,99.48
2018-11-11T00:32:37.510Z,98.56
2018-11-11T00:33:37.496Z,98.86
2018-11-11T00:34:37.506Z,99.48
2018-11-11T00:35:37.470Z,99.27
2018-11-11T00:36:37.460Z,99.58
2018-11-11T00:37:37.454Z,99.52
2018-11-11T00:38:37.442Z,99.11
2018-11-11T00:39:37.499Z,99.52
2018-11-11T00:40:37.422Z,99.27
2018-11-11T00:41:37.414Z,99.73
2018-11-11T00:42:37.397Z,99.22
2018-11-11T00:43:37.383Z,99.93
2018-11-11T00:44:37.380Z,99.73
2018-11-11T00:45:37.385Z,99.99
2018-11-11T00:46:37.355Z,99.84
2018-11-11T00:47:37.346Z,99.63
2018-11-11T00:48:37.339Z,99.32
2018-11-11T00:49:37.332Z,99.73
2018-11-11T00:50:37.332Z,99.02
2018-11-11T00:51:37.307Z,99.32
2018-11-11T00:52:37.291Z,99.43
2018-11-11T00:53:37.307Z,99.11
2018-11-11T00:54:37.268Z,99.52
2018-11-11T00:55:37.285Z,99.43
2018-11-11T00:56:37.241Z,99.27
2018-11-11T00:57:37.232Z,99.02
2018-11-11T00:58:37.225Z,99.32
2018-11-11T00:59:37.217Z,99.02
2018-11-11T01:00:37.216Z,99.57
2018-11-11T01:01:37.233Z,99.11
2018-11-11T01:02:37.178Z,99.02
2018-11-11T01:03:37.165Z,98.81
2018-11-11T01:04:37.164Z,99.52
2018-11-11T01:05:37.167Z,98.71
2018-11-11T01:06:37.135Z,99.11
2018-11-11T01:07:37.121Z,99.02
2018-11-11T01:08:37.128Z,98.71
2018-11-11T01:09:37.103Z,98.30
2018-11-11T01:10:37.093Z,98.25
2018-11-11T01:11:37.085Z,98.46
2018-11-11T01:12:37.073Z,98.50
2018-11-11T01:13:37.078Z,97.64
2018-11-11T01:14:37.055Z,97.85
2018-11-11T01:15:37.033Z,98.05
2018-11-11T01:16:37.031Z,98.30
2018-11-11T01:17:37.017Z,98.50
2018-11-11T01:18:37.024Z,98.10
2018-11-11T01:19:36.997Z,98.30
2018-11-11T01:20:36.996Z,98.30
2018-11-11T01:21:36.971Z,98.20
2018-11-11T01:22:36.964Z,98.10
2018-11-11T01:23:36.954Z,97.54
2018-11-11T01:24:36.946Z,97.89
2018-11-11T01:25:36.954Z,97.64
2018-11-11T01:26:36.923Z,98.25
2018-11-11T01:27:36.910Z,97.03
2018-11-11T01:28:36.900Z,96.92
2018-11-11T01:29:36.884Z,96.92
2018-11-11T01:30:36.896Z,96.92
2018-11-11T01:31:36.888Z,97.03
2018-11-11T01:32:36.854Z,96.83
2018-11-11T01:33:36.866Z,97.03
2018-11-11T01:34:36.829Z,96.51
2018-11-11T01:35:36.832Z,96.92
2018-11-11T01:36:36.810Z,96.83
2018-11-11T01:37:36.797Z,96.72
2018-11-11T01:38:36.834Z,96.21
2018-11-11T01:39:36.790Z,95.56
2018-11-11T01:40:36.780Z,94.43
2018-11-11T01:41:36.753Z,94.84
2018-11-11T01:42:36.820Z,94.74
2018-11-11T01:43:36.733Z,94.74
2018-11-11T01:44:36.745Z,94.53
2018-11-11T01:45:36.710Z,94.33
2018-11-11T01:46:36.698Z,94.94
2018-11-11T01:47:36.693Z,94.12
2018-11-11T01:48:36.689Z,93.62
2018-11-11T01:49:36.664Z,94.08
2018-11-11T01:50:36.681Z,94.64
2018-11-11T01:51:36.646Z,94.74
2018-11-11T01:52:36.639Z,95.15
2018-11-11T01:53:36.621Z,94.74
2018-11-11T01:54:36.614Z,95.04
2018-11-11T01:55:36.603Z,94.48
2018-11-11T01:56:36.616Z,94.68
2018-11-11T01:57:36.624Z,94.48
2018-11-11T01:58:36.569Z,94.84
2018-11-11T01:59:36.554Z,94.94
2018-11-11T02:00:36.545Z,94.53
2018-11-11T02:01:36.532Z,94.58
2018-11-11T02:02:36.522Z,95.15
2018-11-11T02:03:36.976Z,94.58
2018-11-11T02:04:36.504Z,94.68
2018-11-11T02:05:36.501Z,94.98
2018-11-11T02:06:36.495Z,95.09
2018-11-11T02:07:36.465Z,94.27
2018-11-11T02:08:36.477Z,94.89
2018-11-11T02:09:36.465Z,94.68
2018-11-11T02:10:36.438Z,94.07
2018-11-11T02:11:36.420Z,93.55
2018-11-11T02:12:36.412Z,93.76
2018-11-11T02:13:36.416Z,93.86
2018-11-11T02:14:36.391Z,94.27
2018-11-11T02:15:36.383Z,93.66
2018-11-11T02:16:36.376Z,93.86
2018-11-11T02:17:36.360Z,93.55
2018-11-11T02:18:36.360Z,93.76
2018-11-11T02:19:36.347Z,93.76
2018-11-11T02:20:36.324Z,93.96
2018-11-11T02:21:36.376Z,93.25
2018-11-11T02:22:36.306Z,93.66
2018-11-11T02:23:36.314Z,93.86
2018-11-11T02:24:36.281Z,93.55
2018-11-11T02:25:36.266Z,93.80
2018-11-11T02:26:36.289Z,93.50
2018-11-11T02:27:36.251Z,93.91
2018-11-11T02:28:36.237Z,93.80
2018-11-11T02:29:36.229Z,93.60
2018-11-11T02:30:36.213Z,93.70
2018-11-11T02:31:36.203Z,93.80
2018-11-11T02:32:36.208Z,93.60
2018-11-11T02:33:36.198Z,94.11
2018-11-11T02:34:36.175Z,93.80
2018-11-11T02:35:36.211Z,93.09
2018-11-11T02:36:36.156Z,92.84
2018-11-11T02:37:36.213Z,92.84
2018-11-11T02:38:36.144Z,92.64
2018-11-11T02:39:36.118Z,92.74
2018-11-11T02:40:36.120Z,92.23
2018-11-11T02:41:36.096Z,92.84
2018-11-11T02:42:36.086Z,92.23
2018-11-11T02:43:36.088Z,92.43
2018-11-11T02:44:36.059Z,92.13
2018-11-11T02:45:36.084Z,92.33
2018-11-11T02:46:36.059Z,92.23
2018-11-11T02:47:36.033Z,92.43
2018-11-11T02:48:36.045Z,91.61
2018-11-11T02:49:36.017Z,92.23
2018-11-11T02:50:35.997Z,92.43
2018-11-11T02:51:35.982Z,92.23
2018-11-11T02:52:35.971Z,92.23
2018-11-11T02:53:35.962Z,92.02
2018-11-11T02:54:35.972Z,92.33
2018-11-11T02:55:35.945Z,92.58
2018-11-11T02:56:35.930Z,92.84
2018-11-11T02:57:35.918Z,92.43
2018-11-11T02:58:35.913Z,92.23
2018-11-11T02:59:35.929Z,92.23
2018-11-11T03:00:35.890Z,91.61
2018-11-11T03:01:35.899Z,92.54
2018-11-11T03:02:35.874Z,92.23
2018-11-11T03:03:35.850Z,92.33
2018-11-11T03:04:36.033Z,92.33
2018-11-11T03:05:35.858Z,92.43
2018-11-11T03:06:35.822Z,91.92
2018-11-11T03:07:35.815Z,92.13
2018-11-11T03:08:35.803Z,92.23
2018-11-11T03:09:35.792Z,92.13
2018-11-11T03:10:35.778Z,91.61
2018-11-11T03:11:35.782Z,92.13
2018-11-11T03:12:35.761Z,92.02
2018-11-11T03:13:35.766Z,92.13
2018-11-11T03:14:35.735Z,91.82
2018-11-11T03:15:35.727Z,92.23
2018-11-11T03:16:35.709Z,91.61
2018-11-11T03:17:35.716Z,92.23
2018-11-11T03:18:35.691Z,91.82
2018-11-11T03:19:35.683Z,91.61
2018-11-11T03:20:35.675Z,92.13
2018-11-11T03:21:35.662Z,92.23
2018-11-11T03:22:35.664Z,91.52
2018-11-11T03:23:35.659Z,90.90
2018-11-11T03:24:35.624Z,91.11
2018-11-11T03:25:35.612Z,91.31
2018-11-11T03:26:35.604Z,91.20
2018-11-11T03:27:35.595Z,90.80
2018-11-11T03:28:35.577Z,91.06
2018-11-11T03:29:35.597Z,91.20
2018-11-11T03:30:35.560Z,91.00
2018-11-11T03:31:35.551Z,90.90
2018-11-11T03:32:35.565Z,91.20
2018-11-11T03:33:35.536Z,90.70
2018-11-11T03:34:35.522Z,90.90
2018-11-11T03:35:35.500Z,90.80
2018-11-11T03:36:35.490Z,90.80
2018-11-11T03:37:35.482Z,89.98
2018-11-11T03:38:35.492Z,90.04
2018-11-11T03:39:35.472Z,90.29
2018-11-11T03:40:35.452Z,90.04
2018-11-11T03:41:35.537Z,89.84
2018-11-11T03:42:35.425Z,89.98
2018-11-11T03:43:35.439Z,90.04
2018-11-11T03:44:35.410Z,90.19
2018-11-11T03:45:35.400Z,90.29
2018-11-11T03:46:35.407Z,90.29
2018-11-11T03:47:35.369Z,90.08
2018-11-11T03:48:35.358Z,89.98
2018-11-11T03:49:35.366Z,90.66
2018-11-11T03:50:35.340Z,90.08
2018-11-11T03:51:35.333Z,90.49
2018-11-11T03:52:35.321Z,89.98
2018-11-11T03:53:35.331Z,90.59
2018-11-11T03:54:35.294Z,90.19
2018-11-11T03:55:35.281Z,89.98
2018-11-11T03:56:35.269Z,90.29
2018-11-11T03:57:35.290Z,90.08
2018-11-11T03:58:35.348Z,90.19
2018-11-11T03:59:35.243Z,90.19
2018-11-11T04:00:35.227Z,89.88
2018-11-11T04:01:35.217Z,90.08
2018-11-11T04:02:35.208Z,89.98
2018-11-11T04:03:35.223Z,91.00
2018-11-11T04:04:35.189Z,90.39
2018-11-11T04:05:35.176Z,90.80
2018-11-11T04:06:35.162Z,90.33
2018-11-11T04:07:35.158Z,89.88
2018-11-11T04:08:35.138Z,90.08
2018-11-11T04:09:35.149Z,90.19
2018-11-11T04:10:35.218Z,90.19
2018-11-11T04:11:35.113Z,90.49
2018-11-11T04:12:35.124Z,89.58
2018-11-11T04:13:35.088Z,89.37
2018-11-11T04:14:35.075Z,89.26
2018-11-11T04:15:35.062Z,90.29
2018-11-11T04:16:35.057Z,90.29
2018-11-11T04:17:35.045Z,89.47
2018-11-11T04:18:35.047Z,89.78
2018-11-11T04:19:35.024Z,89.47
2018-11-11T04:20:35.010Z,89.47
2018-11-11T04:21:34.998Z,89.88
2018-11-11T04:22:34.989Z,89.37
2018-11-11T04:23:34.997Z,89.67
2018-11-11T04:24:34.970Z,90.39
2018-11-11T04:25:34.972Z,89.58
2018-11-11T04:26:34.960Z,89.92
2018-11-11T04:27:34.943Z,89.78
2018-11-11T04:28:34.919Z,89.98
2018-11-11T04:29:34.929Z,90.12
2018-11-11T04:30:34.902Z,90.33
2018-11-11T04:31:34.892Z,90.78
2018-11-11T04:32:34.875Z,90.64
2018-11-11T04:33:34.866Z,90.53
2018-11-11T04:34:34.880Z,90.53
2018-11-11T04:35:34.850Z,91.39
2018-11-11T04:36:34.839Z,90.27
2018-11-11T04:37:34.824Z,90.23
2018-11-11T04:38:34.811Z,90.68
2018-11-11T04:39:34.823Z,90.68
2018-11-11T04:40:34.789Z,91.09
2018-11-11T04:41:34.779Z,91.19
2018-11-11T04:42:34.770Z,90.47
2018-11-11T04:43:34.761Z,90.17
2018-11-11T04:44:35.526Z,90.84
2018-11-11T04:45:34.745Z,90.58
2018-11-11T04:46:34.813Z,89.97
2018-11-11T04:47:34.714Z,90.88
2018-11-11T04:48:34.730Z,91.19
2018-11-11T04:49:34.784Z,90.47
2018-11-11T04:50:34.684Z,90.78
2018-11-11T04:51:34.670Z,90.52
2018-11-11T04:52:34.657Z,91.13
2018-11-11T04:53:34.671Z,90.92
2018-11-11T04:54:34.663Z,91.44
2018-11-11T04:55:34.633Z,91.03
2018-11-11T04:56:34.623Z,91.29
2018-11-11T04:57:34.608Z,90.82
2018-11-11T04:58:34.622Z,91.44
2018-11-11T04:59:34.581Z,91.60
2018-11-11T05:00:34.570Z,91.54
2018-11-11T05:01:34.594Z,91.19
2018-11-11T05:02:34.554Z,91.39
2018-11-11T05:03:34.547Z,91.29
2018-11-11T05:04:34.616Z,91.09
2018-11-11T05:05:34.520Z,91.85
2018-11-11T05:06:34.513Z,91.19
2018-11-11T05:07:34.501Z,91.29
2018-11-11T05:08:34.510Z,91.13
2018-11-11T05:09:34.496Z,91.19
2018-11-11T05:10:34.466Z,90.37
2018-11-11T05:11:34.453Z,91.03
2018-11-11T05:12:34.458Z,90.17
2018-11-11T05:13:34.456Z,90.27
2018-11-11T05:14:34.424Z,89.97
2018-11-11T05:15:34.413Z,90.58
2018-11-11T05:16:34.410Z,90.27
2018-11-11T05:17:34.389Z,90.68
2018-11-11T05:18:34.380Z,90.37
2018-11-11T05:19:34.381Z,90.27
2018-11-11T05:20:34.359Z,90.33
2018-11-11T05:21:34.350Z,90.33
2018-11-11T05:22:34.337Z,90.17
2018-11-11T05:23:34.329Z,90.27
2018-11-11T05:24:34.328Z,90.02
2018-11-11T05:25:34.301Z,90.02
2018-11-11T05:26:34.291Z,90.17
2018-11-11T05:27:34.293Z,90.17
2018-11-11T05:28:34.313Z,90.37
2018-11-11T05:29:34.286Z,90.06
2018-11-11T05:30:34.245Z,90.27
2018-11-11T05:31:34.237Z,90.33
2018-11-11T05:32:34.221Z,89.86
2018-11-11T05:33:34.240Z,90.06
2018-11-11T05:34:34.205Z,90.37
2018-11-11T05:35:34.196Z,90.17
2018-11-11T05:36:34.181Z,90.23
2018-11-11T05:37:34.170Z,89.76
2018-11-11T05:38:34.161Z,89.31
2018-11-11T05:39:34.169Z,89.61
2018-11-11T05:40:34.140Z,89.51
2018-11-11T05:41:34.129Z,88.85
2018-11-11T05:42:34.121Z,89.17
2018-11-11T05:43:34.102Z,89.11
2018-11-11T05:44:34.110Z,89.00
2018-11-11T05:45:34.082Z,89.41
2018-11-11T05:46:34.073Z,88.85
2018-11-11T05:47:34.064Z,88.79
2018-11-11T05:48:34.055Z,89.26
2018-11-11T05:49:34.059Z,89.17
2018-11-11T05:50:34.031Z,89.31
2018-11-11T05:51:34.042Z,89.82
2018-11-11T05:52:34.009Z,88.96
2018-11-11T05:53:34.014Z,89.37
2018-11-11T05:54:34.002Z,89.61
2018-11-11T05:55:33.971Z,89.20
2018-11-11T05:56:33.961Z,89.26
2018-11-11T05:57:33.954Z,89.06
2018-11-11T05:58:33.942Z,89.26
2018-11-11T05:59:35.068Z,87.84
2018-11-11T06:00:33.925Z,87.94
2018-11-11T06:01:33.910Z,88.85
2018-11-11T06:02:33.903Z,89.26
2018-11-11T06:03:33.885Z,89.20
2018-11-11T06:04:33.890Z,89.47
2018-11-11T06:05:33.863Z,89.61
2018-11-11T06:06:33.854Z,90.23
2018-11-11T06:07:33.847Z,90.12
2018-11-11T06:08:33.828Z,90.53
2018-11-11T06:09:33.838Z,90.64
2018-11-11T06:10:33.812Z,90.23
2018-11-11T06:11:33.824Z,90.12
2018-11-11T06:12:33.790Z,90.23
2018-11-11T06:13:33.778Z,90.02
2018-11-11T06:14:33.781Z,90.74
2018-11-11T06:15:33.752Z,90.53
2018-11-11T06:16:33.742Z,90.64
2018-11-11T06:17:33.734Z,90.02
2018-11-11T06:18:33.723Z,90.12
2018-11-11T06:19:33.732Z,90.12
2018-11-11T06:20:33.705Z,90.23
2018-11-11T06:21:33.690Z,90.33
2018-11-11T06:22:33.680Z,90.23
2018-11-11T06:23:33.667Z,90.53
2018-11-11T06:24:33.693Z,89.65
2018-11-11T06:25:33.647Z,90.12
2018-11-11T06:26:33.638Z,90.02
2018-11-11T06:27:33.632Z,90.12
2018-11-11T06:28:33.612Z,90.02
2018-11-11T06:29:33.621Z,90.12
2018-11-11T06:30:33.595Z,90.12
2018-11-11T06:31:33.584Z,90.06
2018-11-11T06:32:33.581Z,90.02
2018-11-11T06:33:33.565Z,90.02
2018-11-11T06:34:33.571Z,90.88
2018-11-11T06:35:33.540Z,90.37
2018-11-11T06:36:33.619Z,90.78
2018-11-11T06:37:33.545Z,90.68
2018-11-11T06:38:33.510Z,90.27
2018-11-11T06:39:33.520Z,90.43
2018-11-11T06:40:33.496Z,90.17
2018-11-11T06:41:33.472Z,90.02
2018-11-11T06:42:33.476Z,90.06
2018-11-11T06:43:33.463Z,90.17
2018-11-11T06:44:33.506Z,90.02
2018-11-11T06:45:33.428Z,90.84
2018-11-11T06:46:33.417Z,91.05
2018-11-11T06:47:33.401Z,91.39
2018-11-11T06:48:33.391Z,91.50
2018-11-11T06:49:33.410Z,91.70
2018-11-11T06:50:33.374Z,91.39
2018-11-11T06:51:33.389Z,91.39
2018-11-11T06:52:33.362Z,91.91
2018-11-11T06:53:33.341Z,91.35
2018-11-11T06:54:33.328Z,91.76
2018-11-11T06:55:33.313Z,91.50
2018-11-11T06:56:33.315Z,91.56
2018-11-11T06:57:33.322Z,91.66
2018-11-11T06:58:33.305Z,91.56
2018-11-11T06:59:33.271Z,91.86
2018-11-11T07:00:33.258Z,91.25
2018-11-11T07:01:33.250Z,92.37
2018-11-11T07:02:33.259Z,92.27
2018-11-11T07:03:33.233Z,92.11
2018-11-11T07:04:33.274Z,92.07
2018-11-11T07:05:33.226Z,91.29
2018-11-11T07:06:33.194Z,91.25
2018-11-11T07:07:33.266Z,91.25
2018-11-11T07:08:33.172Z,90.88
2018-11-11T07:09:33.182Z,91.25
2018-11-11T07:10:33.153Z,91.70
2018-11-11T07:11:33.165Z,91.56
2018-11-11T07:12:33.146Z,91.39
2018-11-11T07:13:33.134Z,91.39
2018-11-11T07:14:33.110Z,92.32
2018-11-11T07:15:33.101Z,91.91
2018-11-11T07:16:33.092Z,91.50
2018-11-11T07:17:33.099Z,91.29
2018-11-11T07:18:33.093Z,91.50
2018-11-11T07:19:33.091Z,91.39
2018-11-11T07:20:33.059Z,91.60
2018-11-11T07:21:33.036Z,91.19
2018-11-11T07:22:33.022Z,91.35
2018-11-11T07:23:33.028Z,90.23
2018-11-11T07:24:33.025Z,90.88
2018-11-11T07:25:32.990Z,89.92
2018-11-11T07:26:32.978Z,90.27
2018-11-11T07:27:32.965Z,90.12
2018-11-11T07:28:32.962Z,90.02
2018-11-11T07:29:32.972Z,89.82
2018-11-11T07:30:32.931Z,89.51
2018-11-11T07:31:33.002Z,90.08
2018-11-11T07:32:32.909Z,89.82
2018-11-11T07:33:32.898Z,90.43
2018-11-11T07:34:32.889Z,89.06
2018-11-11T07:35:32.885Z,89.37
2018-11-11T07:36:32.888Z,89.47
2018-11-11T07:37:32.858Z,88.85
2018-11-11T07:38:32.844Z,89.47
2018-11-11T07:39:32.833Z,89.37
2018-11-11T07:40:32.819Z,89.37
2018-11-11T07:41:32.839Z,88.35
2018-11-11T07:42:32.923Z,88.35
2018-11-11T07:43:32.807Z,88.10
2018-11-11T07:44:32.778Z,87.94
2018-11-11T07:45:32.766Z,87.90
2018-11-11T07:46:32.782Z,87.79
2018-11-11T07:47:32.748Z,88.04
2018-11-11T07:48:32.742Z,88.51
2018-11-11T07:49:32.725Z,87.90
2018-11-11T07:50:32.716Z,87.79
2018-11-11T07:51:32.716Z,87.49
2018-11-11T07:52:32.687Z,87.18
2018-11-11T07:53:32.681Z,87.49
2018-11-11T07:54:32.707Z,87.49
2018-11-11T07:55:32.661Z,87.08
2018-11-11T07:56:32.669Z,86.67
2018-11-11T07:57:32.637Z,86.77
2018-11-11T07:58:32.815Z,86.67
2018-11-11T07:59:32.629Z,86.88
2018-11-11T08:00:32.619Z,87.29
2018-11-11T08:01:32.645Z,86.43
2018-11-11T08:02:32.604Z,85.21
2018-11-11T08:03:32.570Z,86.63
2018-11-11T08:04:32.605Z,85.71
2018-11-11T08:05:32.549Z,86.33
2018-11-11T08:06:33.122Z,85.92
2018-11-11T08:07:32.539Z,86.33
2018-11-11T08:08:32.519Z,85.41
2018-11-11T08:09:32.530Z,85.41
2018-11-11T08:10:32.698Z,85.00
2018-11-11T08:11:32.495Z,84.90
2018-11-11T08:12:32.470Z,85.30
2018-11-11T08:13:32.459Z,85.37
2018-11-11T08:14:32.500Z,85.61
2018-11-11T08:15:35.442Z,85.51
2018-11-11T08:16:32.495Z,85.27
2018-11-11T08:17:32.416Z,85.68
2018-11-11T08:18:32.407Z,85.77
2018-11-11T08:19:32.469Z,85.77
2018-11-11T08:20:32.387Z,85.16
2018-11-11T08:21:32.412Z,85.06
2018-11-11T08:22:32.405Z,85.57
2018-11-11T08:23:32.349Z,85.16
2018-11-11T08:24:32.338Z,85.33
2018-11-11T08:25:32.391Z,84.72
2018-11-11T08:26:32.347Z,85.53
2018-11-11T08:27:32.312Z,84.20
2018-11-11T08:28:32.300Z,84.31
2018-11-11T08:29:32.301Z,84.20
2018-11-11T08:30:32.275Z,84.00
2018-11-11T08:31:32.281Z,84.11
2018-11-11T08:32:32.272Z,83.70
2018-11-11T08:33:32.250Z,83.49
2018-11-11T08:34:32.229Z,84.00
2018-11-11T08:35:32.218Z,84.20
2018-11-11T08:36:32.226Z,84.04
2018-11-11T08:37:32.209Z,83.70
2018-11-11T08:38:32.190Z,83.43
2018-11-11T08:39:32.191Z,83.49
2018-11-11T08:40:32.230Z,83.43
2018-11-11T08:41:32.190Z,84.11
2018-11-11T08:42:32.147Z,84.34
2018-11-11T08:43:32.133Z,83.94
2018-11-11T08:44:32.131Z,84.45
2018-11-11T08:45:32.112Z,84.14
2018-11-11T08:46:32.102Z,84.25
2018-11-11T08:47:32.111Z,83.73
2018-11-11T08:48:32.083Z,83.84
2018-11-11T08:49:32.067Z,83.18
2018-11-11T08:50:32.061Z,83.49
2018-11-11T08:51:32.052Z,83.59
2018-11-11T08:52:32.062Z,83.15
2018-11-11T08:53:32.168Z,84.00
2018-11-11T08:54:32.018Z,82.94
2018-11-11T08:55:32.020Z,82.84
2018-11-11T08:56:32.063Z,83.15
2018-11-11T08:57:31.982Z,82.84
2018-11-11T08:58:33.023Z,82.64
2018-11-11T08:59:32.125Z,82.43
2018-11-11T09:00:32.368Z,82.19
2018-11-11T09:01:31.941Z,82.84
2018-11-11T09:02:32.030Z,82.13
2018-11-11T09:03:31.917Z,82.23
2018-11-11T09:04:31.972Z,82.43
2018-11-11T09:05:31.916Z,82.43
2018-11-11T09:06:31.886Z,81.99
2018-11-11T09:07:31.869Z,81.11
2018-11-11T09:08:31.877Z,82.23
2018-11-11T09:09:31.849Z,82.19
2018-11-11T09:10:31.842Z,83.01
2018-11-11T09:11:31.903Z,82.09
2018-11-11T09:12:31.820Z,82.50
2018-11-11T09:13:31.833Z,81.68
2018-11-11T09:14:31.794Z,81.38
2018-11-11T09:15:31.782Z,81.04
2018-11-11T09:16:31.770Z,81.13
2018-11-11T09:17:31.846Z,80.49
2018-11-11T09:18:31.777Z,80.59
2018-11-11T09:19:31.765Z,79.57
2018-11-11T09:20:31.727Z,80.49
2018-11-11T09:21:31.807Z,80.83
2018-11-11T09:22:31.708Z,80.22
2018-11-11T09:23:31.708Z,80.11
2018-11-11T09:24:31.732Z,79.77
2018-11-11T09:25:31.722Z,80.04
2018-11-11T09:26:31.662Z,79.23
2018-11-11T09:27:31.655Z,78.38
2018-11-11T09:28:31.688Z,78.78
2018-11-11T09:29:31.659Z,79.80
2018-11-11T09:30:31.698Z,77.67
2018-11-11T09:31:31.612Z,77.36
2018-11-11T09:32:31.605Z,77.97
2018-11-11T09:33:31.591Z,77.87
2018-11-11T09:34:31.580Z,77.33
2018-11-11T09:35:31.590Z,77.53
2018-11-11T09:36:31.565Z,77.87
2018-11-11T09:37:31.560Z,77.36
2018-11-11T09:38:31.532Z,78.11
2018-11-11T09:39:31.538Z,77.60
2018-11-11T09:40:31.547Z,78.35
2018-11-11T09:41:31.505Z,79.57
2018-11-11T09:42:31.554Z,79.47
2018-11-11T09:43:31.487Z,80.04
2018-11-11T09:44:31.491Z,79.43
2018-11-11T09:45:31.471Z,79.80
2018-11-11T09:46:31.451Z,74.99
2018-11-11T09:47:31.449Z,76.17
2018-11-11T09:48:31.429Z,76.28
2018-11-11T09:49:31.429Z,75.46
2018-11-11T09:50:31.407Z,77.19
2018-11-11T09:51:31.402Z,77.09
2018-11-11T09:52:31.383Z,76.61
2018-11-11T09:53:31.394Z,77.77
2018-11-11T09:54:31.383Z,77.67
2018-11-11T09:55:31.357Z,77.16
2018-11-11T09:56:31.339Z,77.36
2018-11-11T09:57:31.325Z,77.16
2018-11-11T09:58:31.421Z,75.87
2018-11-11T09:59:31.317Z,76.14
2018-11-11T10:00:31.498Z,74.76
2018-11-11T10:01:31.299Z,74.55
2018-11-11T10:02:32.385Z,74.76
2018-11-11T10:03:31.288Z,75.02
2018-11-11T10:04:31.253Z,75.06
2018-11-11T10:05:31.696Z,75.73
2018-11-11T10:06:32.104Z,75.43
2018-11-11T10:07:31.329Z,75.57
2018-11-11T10:08:32.160Z,76.07
2018-11-11T10:09:31.881Z,75.77
2018-11-11T10:10:31.221Z,77.60
2018-11-11T10:11:31.170Z,75.98
2018-11-11T10:12:31.251Z,75.57
2018-11-11T10:13:31.154Z,75.23
2018-11-11T10:14:31.140Z,76.04
2018-11-11T10:15:31.148Z,75.84
2018-11-11T10:16:31.121Z,75.84
2018-11-11T10:17:31.126Z,74.85
2018-11-11T10:18:31.104Z,75.26
2018-11-11T10:19:31.108Z,75.98
2018-11-11T10:20:31.165Z,76.07
2018-11-11T10:21:31.279Z,75.46
2018-11-11T10:22:31.084Z,75.46
2018-11-11T10:23:31.116Z,75.77
2018-11-11T10:24:31.025Z,74.55
2018-11-11T10:25:31.043Z,76.28
2018-11-11T10:26:31.266Z,75.94
2018-11-11T10:27:32.230Z,75.33
2018-11-11T10:28:31.519Z,75.94
2018-11-11T10:29:30.979Z,74.79
2018-11-11T10:30:30.986Z,74.34
2018-11-11T10:31:30.953Z,73.19
2018-11-11T10:32:30.938Z,72.45
2018-11-11T10:33:30.979Z,73.26
2018-11-11T10:34:30.939Z,72.55
2018-11-11T10:35:31.056Z,72.82
2018-11-11T10:36:47.792Z,72.61
2018-11-11T10:37:30.945Z,72.65
2018-11-11T10:38:30.881Z,70.21
2018-11-11T10:39:30.866Z,70.89
2018-11-11T10:40:30.853Z,69.51
2018-11-11T10:41:30.858Z,69.31
2018-11-11T10:42:30.837Z,70.42
2018-11-11T10:43:30.820Z,69.10
2018-11-11T10:44:30.916Z,69.07
2018-11-11T10:45:30.803Z,72.14
2018-11-11T10:46:30.812Z,71.13
2018-11-11T10:47:30.780Z,70.32
2018-11-11T10:48:30.781Z,69.64
2018-11-11T10:49:30.753Z,70.48
2018-11-11T10:50:30.759Z,72.85
2018-11-11T10:51:30.732Z,71.53
2018-11-11T10:52:30.724Z,70.83
2018-11-11T10:53:30.716Z,71.94
2018-11-11T10:54:30.840Z,72.04
2018-11-11T10:55:30.689Z,72.96
2018-11-11T10:56:30.687Z,71.97
2018-11-11T10:57:30.689Z,72.28
2018-11-11T10:58:30.660Z,72.99
2018-11-11T10:59:30.650Z,72.89
2018-11-11T11:00:30.653Z,72.62
2018-11-11T11:01:30.621Z,72.62
2018-11-11T11:02:30.637Z,72.01
2018-11-11T11:03:30.598Z,72.11
2018-11-11T11:04:30.603Z,72.41
2018-11-11T11:05:30.614Z,72.38
2018-11-11T11:06:30.570Z,72.41
2018-11-11T11:07:30.564Z,71.57
2018-11-11T11:08:30.556Z,71.88
2018-11-11T11:09:30.544Z,71.16
2018-11-11T11:10:30.547Z,70.18
2018-11-11T11:11:30.521Z,69.47
2018-11-11T11:12:30.525Z,69.17
2018-11-11T11:13:30.614Z,68.66
2018-11-11T11:14:30.480Z,69.71
2018-11-11T11:15:30.471Z,69.60
2018-11-11T11:16:30.462Z,69.60
2018-11-11T11:17:30.466Z,69.51
2018-11-11T11:18:30.438Z,70.32
2018-11-11T11:19:30.430Z,69.20
2018-11-11T11:20:30.411Z,70.72
2018-11-11T11:21:30.405Z,70.11
2018-11-11T11:22:30.413Z,70.52
2018-11-11T11:23:30.378Z,69.78
2018-11-11T11:24:30.377Z,70.39
2018-11-11T11:25:30.411Z,69.78
2018-11-11T11:26:30.349Z,68.56
2018-11-11T11:27:30.352Z,69.47
2018-11-11T11:28:30.332Z,70.79
2018-11-11T11:29:30.346Z,69.57
2018-11-11T11:30:30.334Z,69.07
2018-11-11T11:31:30.465Z,69.78
2018-11-11T11:32:30.279Z,69.57
2018-11-11T11:33:30.297Z,70.28
2018-11-11T11:34:30.259Z,69.37
2018-11-11T11:35:30.299Z,68.87
2018-11-11T11:36:30.247Z,69.17
2018-11-11T11:37:30.247Z,69.57
2018-11-11T11:38:30.223Z,69.27
2018-11-11T11:39:30.225Z,68.87
2018-11-11T11:40:30.191Z,68.35
2018-11-11T11:41:30.306Z,68.66
2018-11-11T11:42:30.200Z,69.68
2018-11-11T11:43:30.165Z,69.44
2018-11-11T11:44:30.149Z,68.66
2018-11-11T11:45:30.141Z,68.63
2018-11-11T11:46:30.129Z,69.13
2018-11-11T11:47:30.214Z,69.24
2018-11-11T11:48:30.128Z,69.07
2018-11-11T11:49:30.097Z,68.83
2018-11-11T11:50:30.160Z,69.31
2018-11-11T11:51:30.076Z,67.68
2018-11-11T11:52:30.131Z,68.80
2018-11-11T11:53:30.247Z,68.26
2018-11-11T11:54:30.052Z,67.58
2018-11-11T11:55:30.052Z,68.40
2018-11-11T11:56:30.039Z,69.00
2018-11-11T11:57:30.009Z,68.49
2018-11-11T11:58:30.013Z,68.80
2018-11-11T11:59:29.983Z,69.00
2018-11-11T12:00:30.006Z,70.05
2018-11-11T12:01:29.965Z,68.49
2018-11-11T12:02:29.954Z,68.40
2018-11-11T12:03:29.950Z,68.93
2018-11-11T12:04:29.928Z,69.51
2018-11-11T12:05:29.942Z,68.43
2018-11-11T12:06:29.940Z,68.63
2018-11-11T12:07:29.894Z,69.24
2018-11-11T12:08:29.977Z,67.89
2018-11-11T12:09:29.881Z,68.29
2018-11-11T12:10:29.867Z,67.68
2018-11-11T12:11:29.880Z,68.70
2018-11-11T12:12:29.840Z,68.29
2018-11-11T12:13:29.830Z,68.43
2018-11-11T12:14:29.823Z,68.32
2018-11-11T12:15:29.814Z,68.52
2018-11-11T12:16:29.888Z,68.93
2018-11-11T12:17:29.786Z,68.52
2018-11-11T12:18:29.776Z,68.73
2018-11-11T12:19:29.763Z,68.66
2018-11-11T12:20:29.758Z,68.35
2018-11-11T12:21:29.786Z,69.27
2018-11-11T12:22:29.764Z,69.78
2018-11-11T12:23:29.726Z,69.68
2018-11-11T12:24:29.708Z,69.71
2018-11-11T12:25:29.718Z,70.21
2018-11-11T12:26:29.697Z,69.81
2018-11-11T12:27:29.707Z,69.60
2018-11-11T12:28:29.670Z,71.64
2018-11-11T12:29:29.676Z,70.42
2018-11-11T12:30:29.755Z,70.92
2018-11-11T12:31:29.640Z,70.76
2018-11-11T12:32:29.639Z,70.96
2018-11-11T12:33:29.616Z,71.47
2018-11-11T12:34:29.627Z,70.55
2018-11-11T12:35:29.595Z,70.76
2018-11-11T12:36:29.575Z,70.92
2018-11-11T12:37:29.569Z,71.03
2018-11-11T12:38:29.561Z,70.21
2018-11-11T12:39:29.637Z,69.78
2018-11-11T12:40:29.539Z,69.71
2018-11-11T12:41:29.557Z,69.57
2018-11-11T12:42:29.516Z,69.91
2018-11-11T12:43:29.511Z,69.60
2018-11-11T12:44:29.554Z,69.20
2018-11-11T12:45:29.483Z,71.13
2018-11-11T12:46:29.471Z,70.52
2018-11-11T12:47:29.463Z,69.60
2018-11-11T12:48:29.448Z,70.42
2018-11-11T12:49:30.444Z,70.32
2018-11-11T12:50:29.618Z,69.71
2018-11-11T12:51:29.411Z,70.42
2018-11-11T12:52:29.433Z,70.42